sensor_id;sensor_type;location;lat;lon;timestamp;temperature;humidity
3350;DHT22;1688;51.000;13.684;2022-07-29T00:00:43;18.70;76.20
3350;DHT22;1688;51.000;13.684;2022-07-29T00:03:14;18.60;76.70
3350;DHT22;1688;51.000;13.684;2022-07-29T00:05:40;18.60;77.10
3350;DHT22;1688;51.000;13.684;2022-07-29T00:08:08;18.60;77.40
3350;DHT22;1688;51.000;13.684;2022-07-29T00:10:35;18.50;77.60
3350;DHT22;1688;51.000;13.684;2022-07-29T00:13:01;18.50;77.50
3350;DHT22;1688;51.000;13.684;2022-07-29T00:15:27;18.50;77.80
3350;DHT22;1688;51.000;13.684;2022-07-29T00:17:53;18.50;77.70
3350;DHT22;1688;51.000;13.684;2022-07-29T00:20:19;18.40;77.70
3350;DHT22;1688;51.000;13.684;2022-07-29T00:22:44;18.40;77.80
3350;DHT22;1688;51.000;13.684;2022-07-29T00:25:13;18.40;78.20
3350;DHT22;1688;51.000;13.684;2022-07-29T00:27:39;18.40;78.20
3350;DHT22;1688;51.000;13.684;2022-07-29T00:30:06;18.40;78.30
3350;DHT22;1688;51.000;13.684;2022-07-29T00:32:33;18.30;78.60
3350;DHT22;1688;51.000;13.684;2022-07-29T00:34:59;18.30;78.80
3350;DHT22;1688;51.000;13.684;2022-07-29T00:37:43;18.20;78.70
3350;DHT22;1688;51.000;13.684;2022-07-29T00:40:09;18.20;79.20
3350;DHT22;1688;51.000;13.684;2022-07-29T00:42:46;18.20;79.40
3350;DHT22;1688;51.000;13.684;2022-07-29T00:45:13;18.20;79.90
3350;DHT22;1688;51.000;13.684;2022-07-29T00:47:39;18.20;79.80
3350;DHT22;1688;51.000;13.684;2022-07-29T00:50:05;18.20;80.50
3350;DHT22;1688;51.000;13.684;2022-07-29T00:52:33;18.20;80.30
3350;DHT22;1688;51.000;13.684;2022-07-29T00:55:05;18.20;80.30
3350;DHT22;1688;51.000;13.684;2022-07-29T00:57:31;18.20;79.80
3350;DHT22;1688;51.000;13.684;2022-07-29T00:59:58;18.20;80.40
3350;DHT22;1688;51.000;13.684;2022-07-29T01:02:23;18.20;79.20
3350;DHT22;1688;51.000;13.684;2022-07-29T01:04:50;18.30;79.40
3350;DHT22;1688;51.000;13.684;2022-07-29T01:07:17;18.30;79.10
3350;DHT22;1688;51.000;13.684;2022-07-29T01:09:44;18.30;79.00
3350;DHT22;1688;51.000;13.684;2022-07-29T01:12:12;18.30;78.70
3350;DHT22;1688;51.000;13.684;2022-07-29T01:14:39;18.30;78.80
3350;DHT22;1688;51.000;13.684;2022-07-29T01:17:26;18.30;78.90
3350;DHT22;1688;51.000;13.684;2022-07-29T01:25:26;18.30;79.30
3350;DHT22;1688;51.000;13.684;2022-07-29T01:30:42;18.30;78.90
3350;DHT22;1688;51.000;13.684;2022-07-29T01:33:13;18.30;78.50
3350;DHT22;1688;51.000;13.684;2022-07-29T01:36:04;18.20;78.30
3350;DHT22;1688;51.000;13.684;2022-07-29T01:38:32;18.30;79.00
3350;DHT22;1688;51.000;13.684;2022-07-29T01:41:14;18.20;79.00
3350;DHT22;1688;51.000;13.684;2022-07-29T01:43:53;18.20;79.50
3350;DHT22;1688;51.000;13.684;2022-07-29T01:46:30;18.20;80.00
3350;DHT22;1688;51.000;13.684;2022-07-29T01:49:02;18.10;81.00
3350;DHT22;1688;51.000;13.684;2022-07-29T01:51:35;18.10;80.80
3350;DHT22;1688;51.000;13.684;2022-07-29T01:56:53;18.00;81.20
3350;DHT22;1688;51.000;13.684;2022-07-29T01:59:20;18.00;81.80
3350;DHT22;1688;51.000;13.684;2022-07-29T02:01:47;18.00;81.70
3350;DHT22;1688;51.000;13.684;2022-07-29T02:04:15;18.00;81.70
3350;DHT22;1688;51.000;13.684;2022-07-29T02:06:43;17.90;81.80
3350;DHT22;1688;51.000;13.684;2022-07-29T02:09:12;18.00;81.20
3350;DHT22;1688;51.000;13.684;2022-07-29T02:11:40;18.00;80.50
3350;DHT22;1688;51.000;13.684;2022-07-29T02:14:10;18.00;78.80
3350;DHT22;1688;51.000;13.684;2022-07-29T02:16:38;18.00;79.00
3350;DHT22;1688;51.000;13.684;2022-07-29T02:19:06;18.10;79.40
3350;DHT22;1688;51.000;13.684;2022-07-29T02:21:35;18.10;79.90
3350;DHT22;1688;51.000;13.684;2022-07-29T02:24:01;18.20;80.30
3350;DHT22;1688;51.000;13.684;2022-07-29T02:26:28;18.20;79.80
3350;DHT22;1688;51.000;13.684;2022-07-29T02:28:56;18.20;79.70
3350;DHT22;1688;51.000;13.684;2022-07-29T02:31:25;18.30;80.00
3350;DHT22;1688;51.000;13.684;2022-07-29T02:33:52;18.30;80.00
3350;DHT22;1688;51.000;13.684;2022-07-29T02:36:22;18.30;80.30
3350;DHT22;1688;51.000;13.684;2022-07-29T02:38:49;18.30;80.30
3350;DHT22;1688;51.000;13.684;2022-07-29T02:41:18;18.30;80.30
3350;DHT22;1688;51.000;13.684;2022-07-29T02:43:47;18.30;80.30
3350;DHT22;1688;51.000;13.684;2022-07-29T02:46:23;18.40;81.10
3350;DHT22;1688;51.000;13.684;2022-07-29T02:48:57;18.40;81.40
3350;DHT22;1688;51.000;13.684;2022-07-29T02:51:29;18.40;81.60
3350;DHT22;1688;51.000;13.684;2022-07-29T02:54:01;18.40;82.00
3350;DHT22;1688;51.000;13.684;2022-07-29T02:56:33;18.40;81.40
3350;DHT22;1688;51.000;13.684;2022-07-29T02:59:04;18.40;81.90
3350;DHT22;1688;51.000;13.684;2022-07-29T03:01:32;18.30;81.60
3350;DHT22;1688;51.000;13.684;2022-07-29T03:04:02;18.30;81.70
3350;DHT22;1688;51.000;13.684;2022-07-29T03:06:29;18.40;82.30
3350;DHT22;1688;51.000;13.684;2022-07-29T03:08:57;18.40;82.30
3350;DHT22;1688;51.000;13.684;2022-07-29T03:11:24;18.40;82.70
3350;DHT22;1688;51.000;13.684;2022-07-29T03:13:51;18.40;82.60
3350;DHT22;1688;51.000;13.684;2022-07-29T03:16:19;18.40;82.80
3350;DHT22;1688;51.000;13.684;2022-07-29T03:18:45;18.40;82.80
3350;DHT22;1688;51.000;13.684;2022-07-29T03:21:12;18.40;82.80
3350;DHT22;1688;51.000;13.684;2022-07-29T03:23:43;18.50;83.00
3350;DHT22;1688;51.000;13.684;2022-07-29T03:26:11;18.40;82.70
3350;DHT22;1688;51.000;13.684;2022-07-29T03:28:37;18.50;83.70
3350;DHT22;1688;51.000;13.684;2022-07-29T03:31:03;18.40;83.80
3350;DHT22;1688;51.000;13.684;2022-07-29T03:33:28;18.40;83.30
3350;DHT22;1688;51.000;13.684;2022-07-29T03:35:56;18.40;81.50
3350;DHT22;1688;51.000;13.684;2022-07-29T03:38:25;18.40;81.00
3350;DHT22;1688;51.000;13.684;2022-07-29T03:41:05;18.30;79.90
3350;DHT22;1688;51.000;13.684;2022-07-29T03:43:36;18.20;80.70
3350;DHT22;1688;51.000;13.684;2022-07-29T03:46:04;18.10;80.90
3350;DHT22;1688;51.000;13.684;2022-07-29T03:48:34;18.00;81.30
3350;DHT22;1688;51.000;13.684;2022-07-29T03:51:01;17.80;82.30
3350;DHT22;1688;51.000;13.684;2022-07-29T03:53:28;17.80;82.80
3350;DHT22;1688;51.000;13.684;2022-07-29T03:55:58;17.90;84.10
3350;DHT22;1688;51.000;13.684;2022-07-29T03:58:26;17.90;83.30
3350;DHT22;1688;51.000;13.684;2022-07-29T04:00:53;17.90;83.30
3350;DHT22;1688;51.000;13.684;2022-07-29T04:03:19;17.90;83.50
3350;DHT22;1688;51.000;13.684;2022-07-29T04:05:58;18.00;84.40
3350;DHT22;1688;51.000;13.684;2022-07-29T04:08:24;18.10;85.10
3350;DHT22;1688;51.000;13.684;2022-07-29T04:10:50;18.10;84.70
3350;DHT22;1688;51.000;13.684;2022-07-29T04:13:18;18.20;84.10
3350;DHT22;1688;51.000;13.684;2022-07-29T04:15:44;18.10;83.80
3350;DHT22;1688;51.000;13.684;2022-07-29T04:18:10;18.10;84.00
3350;DHT22;1688;51.000;13.684;2022-07-29T04:20:35;18.10;83.70
3350;DHT22;1688;51.000;13.684;2022-07-29T04:23:01;18.20;84.60
3350;DHT22;1688;51.000;13.684;2022-07-29T04:25:27;18.20;83.90
3350;DHT22;1688;51.000;13.684;2022-07-29T04:27:52;18.10;83.70
3350;DHT22;1688;51.000;13.684;2022-07-29T04:30:28;17.90;85.00
3350;DHT22;1688;51.000;13.684;2022-07-29T04:32:55;17.70;85.30
3350;DHT22;1688;51.000;13.684;2022-07-29T04:35:20;17.70;85.10
3350;DHT22;1688;51.000;13.684;2022-07-29T04:37:46;17.70;85.10
3350;DHT22;1688;51.000;13.684;2022-07-29T04:40:12;17.80;84.80
3350;DHT22;1688;51.000;13.684;2022-07-29T04:42:39;17.90;84.50
3350;DHT22;1688;51.000;13.684;2022-07-29T04:45:05;18.00;84.30
3350;DHT22;1688;51.000;13.684;2022-07-29T04:47:31;18.10;84.30
3350;DHT22;1688;51.000;13.684;2022-07-29T04:49:57;18.20;84.20
3350;DHT22;1688;51.000;13.684;2022-07-29T04:52:23;18.30;83.70
3350;DHT22;1688;51.000;13.684;2022-07-29T04:54:49;18.30;84.10
3350;DHT22;1688;51.000;13.684;2022-07-29T04:57:17;18.10;84.40
3350;DHT22;1688;51.000;13.684;2022-07-29T04:59:42;17.90;86.00
3350;DHT22;1688;51.000;13.684;2022-07-29T05:02:09;17.90;86.30
3350;DHT22;1688;51.000;13.684;2022-07-29T05:04:35;17.80;86.40
3350;DHT22;1688;51.000;13.684;2022-07-29T05:07:01;17.90;86.00
3350;DHT22;1688;51.000;13.684;2022-07-29T05:09:27;17.90;86.30
3350;DHT22;1688;51.000;13.684;2022-07-29T05:11:53;17.90;86.50
3350;DHT22;1688;51.000;13.684;2022-07-29T05:14:19;18.10;86.30
3350;DHT22;1688;51.000;13.684;2022-07-29T05:16:46;18.30;87.00
3350;DHT22;1688;51.000;13.684;2022-07-29T05:19:11;18.40;86.90
3350;DHT22;1688;51.000;13.684;2022-07-29T05:21:37;18.50;87.90
3350;DHT22;1688;51.000;13.684;2022-07-29T05:24:03;18.60;87.40
3350;DHT22;1688;51.000;13.684;2022-07-29T05:26:29;18.70;87.20
3350;DHT22;1688;51.000;13.684;2022-07-29T05:28:57;18.80;86.00
3350;DHT22;1688;51.000;13.684;2022-07-29T05:31:23;18.90;86.80
3350;DHT22;1688;51.000;13.684;2022-07-29T05:33:49;19.10;86.90
3350;DHT22;1688;51.000;13.684;2022-07-29T05:36:15;19.20;86.90
3350;DHT22;1688;51.000;13.684;2022-07-29T05:38:42;19.30;86.70
3350;DHT22;1688;51.000;13.684;2022-07-29T05:41:08;19.40;86.10
3350;DHT22;1688;51.000;13.684;2022-07-29T05:43:34;19.40;86.50
3350;DHT22;1688;51.000;13.684;2022-07-29T05:46:00;19.20;87.80
3350;DHT22;1688;51.000;13.684;2022-07-29T05:48:26;19.20;88.50
3350;DHT22;1688;51.000;13.684;2022-07-29T05:50:53;19.20;88.20
3350;DHT22;1688;51.000;13.684;2022-07-29T05:53:18;19.30;88.50
3350;DHT22;1688;51.000;13.684;2022-07-29T05:55:44;19.40;88.30
3350;DHT22;1688;51.000;13.684;2022-07-29T05:58:10;19.50;88.00
3350;DHT22;1688;51.000;13.684;2022-07-29T06:00:36;19.60;87.40
3350;DHT22;1688;51.000;13.684;2022-07-29T06:03:02;19.50;86.60
3350;DHT22;1688;51.000;13.684;2022-07-29T06:05:28;19.30;87.60
3350;DHT22;1688;51.000;13.684;2022-07-29T06:07:53;19.30;88.40
3350;DHT22;1688;51.000;13.684;2022-07-29T06:10:19;19.50;88.20
3350;DHT22;1688;51.000;13.684;2022-07-29T06:12:45;19.40;87.80
3350;DHT22;1688;51.000;13.684;2022-07-29T06:15:11;19.20;87.80
3350;DHT22;1688;51.000;13.684;2022-07-29T06:17:36;19.20;88.50
3350;DHT22;1688;51.000;13.684;2022-07-29T06:20:03;19.20;88.60
3350;DHT22;1688;51.000;13.684;2022-07-29T06:22:29;19.20;88.50
3350;DHT22;1688;51.000;13.684;2022-07-29T06:24:55;19.40;89.40
3350;DHT22;1688;51.000;13.684;2022-07-29T06:27:21;19.60;90.00
3350;DHT22;1688;51.000;13.684;2022-07-29T06:29:47;19.80;88.60
3350;DHT22;1688;51.000;13.684;2022-07-29T06:32:13;19.80;87.50
3350;DHT22;1688;51.000;13.684;2022-07-29T06:34:38;20.00;87.80
3350;DHT22;1688;51.000;13.684;2022-07-29T06:37:07;20.20;87.90
3350;DHT22;1688;51.000;13.684;2022-07-29T06:39:35;20.40;87.50
3350;DHT22;1688;51.000;13.684;2022-07-29T06:42:06;20.50;87.40
3350;DHT22;1688;51.000;13.684;2022-07-29T06:44:32;20.50;86.90
3350;DHT22;1688;51.000;13.684;2022-07-29T06:47:01;20.60;87.70
3350;DHT22;1688;51.000;13.684;2022-07-29T06:49:27;20.80;85.90
3350;DHT22;1688;51.000;13.684;2022-07-29T06:51:54;20.70;84.90
3350;DHT22;1688;51.000;13.684;2022-07-29T06:54:20;20.60;85.20
3350;DHT22;1688;51.000;13.684;2022-07-29T06:56:47;20.70;85.10
3350;DHT22;1688;51.000;13.684;2022-07-29T06:59:13;20.90;85.20
3350;DHT22;1688;51.000;13.684;2022-07-29T07:01:41;21.00;84.90
3350;DHT22;1688;51.000;13.684;2022-07-29T07:04:07;20.90;84.10
3350;DHT22;1688;51.000;13.684;2022-07-29T07:06:34;20.80;84.60
3350;DHT22;1688;51.000;13.684;2022-07-29T07:09:00;20.70;84.90
3350;DHT22;1688;51.000;13.684;2022-07-29T07:11:26;20.70;85.00
3350;DHT22;1688;51.000;13.684;2022-07-29T07:13:53;20.80;85.10
3350;DHT22;1688;51.000;13.684;2022-07-29T07:16:19;20.80;84.60
3350;DHT22;1688;51.000;13.684;2022-07-29T07:18:45;20.90;86.00
3350;DHT22;1688;51.000;13.684;2022-07-29T07:21:11;20.90;84.70
3350;DHT22;1688;51.000;13.684;2022-07-29T07:23:37;21.10;85.60
3350;DHT22;1688;51.000;13.684;2022-07-29T07:26:03;21.20;84.50
3350;DHT22;1688;51.000;13.684;2022-07-29T07:28:31;21.20;84.10
3350;DHT22;1688;51.000;13.684;2022-07-29T07:30:57;21.20;84.00
3350;DHT22;1688;51.000;13.684;2022-07-29T07:33:22;21.20;84.50
3350;DHT22;1688;51.000;13.684;2022-07-29T07:35:48;21.20;83.60
3350;DHT22;1688;51.000;13.684;2022-07-29T07:38:14;21.20;83.70
3350;DHT22;1688;51.000;13.684;2022-07-29T07:40:40;21.30;83.90
3350;DHT22;1688;51.000;13.684;2022-07-29T07:43:06;21.50;83.50
3350;DHT22;1688;51.000;13.684;2022-07-29T07:45:32;21.60;83.40
3350;DHT22;1688;51.000;13.684;2022-07-29T07:47:58;21.90;83.10
3350;DHT22;1688;51.000;13.684;2022-07-29T07:50:24;22.10;81.50
3350;DHT22;1688;51.000;13.684;2022-07-29T07:52:54;22.20;82.20
3350;DHT22;1688;51.000;13.684;2022-07-29T07:55:23;22.60;81.30
3350;DHT22;1688;51.000;13.684;2022-07-29T07:57:49;22.60;80.20
3350;DHT22;1688;51.000;13.684;2022-07-29T08:00:16;22.70;79.30
3350;DHT22;1688;51.000;13.684;2022-07-29T08:02:43;22.70;79.00
3350;DHT22;1688;51.000;13.684;2022-07-29T08:05:11;22.80;79.30
3350;DHT22;1688;51.000;13.684;2022-07-29T08:07:41;22.90;79.10
3350;DHT22;1688;51.000;13.684;2022-07-29T08:10:07;22.70;78.80
3350;DHT22;1688;51.000;13.684;2022-07-29T08:12:33;22.60;80.00
3350;DHT22;1688;51.000;13.684;2022-07-29T08:14:59;22.70;79.40
3350;DHT22;1688;51.000;13.684;2022-07-29T08:17:25;22.60;79.40
3350;DHT22;1688;51.000;13.684;2022-07-29T08:19:52;22.60;79.60
3350;DHT22;1688;51.000;13.684;2022-07-29T08:22:18;22.80;79.40
3350;DHT22;1688;51.000;13.684;2022-07-29T08:24:43;23.00;78.60
3350;DHT22;1688;51.000;13.684;2022-07-29T08:27:10;23.30;77.90
3350;DHT22;1688;51.000;13.684;2022-07-29T08:29:37;23.20;78.30
3350;DHT22;1688;51.000;13.684;2022-07-29T08:32:04;23.40;79.40
3350;DHT22;1688;51.000;13.684;2022-07-29T08:34:30;23.90;77.20
3350;DHT22;1688;51.000;13.684;2022-07-29T08:36:56;24.00;76.50
3350;DHT22;1688;51.000;13.684;2022-07-29T08:39:23;24.10;75.00
3350;DHT22;1688;51.000;13.684;2022-07-29T08:41:49;24.30;73.70
3350;DHT22;1688;51.000;13.684;2022-07-29T08:44:20;24.30;73.50
3350;DHT22;1688;51.000;13.684;2022-07-29T08:46:48;24.30;73.60
3350;DHT22;1688;51.000;13.684;2022-07-29T08:49:37;24.40;73.70
3350;DHT22;1688;51.000;13.684;2022-07-29T08:52:04;24.50;73.50
3350;DHT22;1688;51.000;13.684;2022-07-29T08:54:30;24.80;73.70
3350;DHT22;1688;51.000;13.684;2022-07-29T08:56:57;25.10;72.30
3350;DHT22;1688;51.000;13.684;2022-07-29T08:59:25;25.00;70.80
3350;DHT22;1688;51.000;13.684;2022-07-29T09:01:53;25.00;71.50
3350;DHT22;1688;51.000;13.684;2022-07-29T09:04:20;24.80;71.30
3350;DHT22;1688;51.000;13.684;2022-07-29T09:06:49;24.90;72.20
3350;DHT22;1688;51.000;13.684;2022-07-29T09:09:16;24.70;72.20
3350;DHT22;1688;51.000;13.684;2022-07-29T09:11:42;24.80;72.60
3350;DHT22;1688;51.000;13.684;2022-07-29T09:14:11;25.10;71.50
3350;DHT22;1688;51.000;13.684;2022-07-29T09:19:26;24.80;71.90
3350;DHT22;1688;51.000;13.684;2022-07-29T09:21:53;25.10;71.30
3350;DHT22;1688;51.000;13.684;2022-07-29T09:29:44;24.70;71.80
3350;DHT22;1688;51.000;13.684;2022-07-29T09:32:10;24.80;72.90
3350;DHT22;1688;51.000;13.684;2022-07-29T09:34:37;25.30;72.90
3350;DHT22;1688;51.000;13.684;2022-07-29T09:37:03;25.60;70.10
3350;DHT22;1688;51.000;13.684;2022-07-29T09:39:35;25.60;68.80
3350;DHT22;1688;51.000;13.684;2022-07-29T09:42:05;25.60;69.40
3350;DHT22;1688;51.000;13.684;2022-07-29T09:44:47;25.70;69.80
3350;DHT22;1688;51.000;13.684;2022-07-29T09:47:14;25.70;68.30
3350;DHT22;1688;51.000;13.684;2022-07-29T09:49:56;25.90;69.40
3350;DHT22;1688;51.000;13.684;2022-07-29T09:52:30;26.20;68.80
3350;DHT22;1688;51.000;13.684;2022-07-29T09:55:09;26.60;69.40
3350;DHT22;1688;51.000;13.684;2022-07-29T09:57:35;26.90;67.90
3350;DHT22;1688;51.000;13.684;2022-07-29T10:00:05;27.10;65.60
3350;DHT22;1688;51.000;13.684;2022-07-29T10:02:37;26.80;66.00
3350;DHT22;1688;51.000;13.684;2022-07-29T10:05:05;26.70;66.10
3350;DHT22;1688;51.000;13.684;2022-07-29T10:07:53;26.90;66.40
3350;DHT22;1688;51.000;13.684;2022-07-29T10:10:21;26.80;64.90
3350;DHT22;1688;51.000;13.684;2022-07-29T10:12:58;26.90;65.00
3350;DHT22;1688;51.000;13.684;2022-07-29T10:15:26;27.30;64.90
3350;DHT22;1688;51.000;13.684;2022-07-29T10:17:53;27.50;62.30
3350;DHT22;1688;51.000;13.684;2022-07-29T10:20:21;27.60;62.30
3350;DHT22;1688;51.000;13.684;2022-07-29T10:22:52;27.80;62.00
3350;DHT22;1688;51.000;13.684;2022-07-29T10:25:19;27.90;61.60
3350;DHT22;1688;51.000;13.684;2022-07-29T10:27:46;28.10;61.30
3350;DHT22;1688;51.000;13.684;2022-07-29T10:30:15;27.90;61.10
3350;DHT22;1688;51.000;13.684;2022-07-29T10:44:05;27.30;60.70
3350;DHT22;1688;51.000;13.684;2022-07-29T10:46:37;27.30;61.30
3350;DHT22;1688;51.000;13.684;2022-07-29T10:52:01;26.80;61.90
3350;DHT22;1688;51.000;13.684;2022-07-29T10:54:37;26.90;62.70
3350;DHT22;1688;51.000;13.684;2022-07-29T11:00:33;27.30;61.00
3350;DHT22;1688;51.000;13.684;2022-07-29T11:05:15;27.60;62.00
3350;DHT22;1688;51.000;13.684;2022-07-29T11:10:44;27.40;60.20
3350;DHT22;1688;51.000;13.684;2022-07-29T11:13:10;27.30;62.20
3350;DHT22;1688;51.000;13.684;2022-07-29T11:15:55;27.50;61.60
3350;DHT22;1688;51.000;13.684;2022-07-29T11:18:22;27.80;61.30
3350;DHT22;1688;51.000;13.684;2022-07-29T11:20:49;28.00;60.10
3350;DHT22;1688;51.000;13.684;2022-07-29T11:29:14;28.70;59.50
3350;DHT22;1688;51.000;13.684;2022-07-29T11:31:47;28.90;58.10
3350;DHT22;1688;51.000;13.684;2022-07-29T11:34:19;29.00;57.80
3350;DHT22;1688;51.000;13.684;2022-07-29T11:47:40;29.10;58.60
3350;DHT22;1688;51.000;13.684;2022-07-29T11:50:09;29.00;57.60
3350;DHT22;1688;51.000;13.684;2022-07-29T11:52:46;29.00;58.80
3350;DHT22;1688;51.000;13.684;2022-07-29T11:55:18;29.40;58.10
3350;DHT22;1688;51.000;13.684;2022-07-29T11:57:52;28.80;56.40
3350;DHT22;1688;51.000;13.684;2022-07-29T12:00:38;28.30;58.20
3350;DHT22;1688;51.000;13.684;2022-07-29T12:03:07;28.50;58.40
3350;DHT22;1688;51.000;13.684;2022-07-29T12:05:42;29.00;58.50
3350;DHT22;1688;51.000;13.684;2022-07-29T12:08:18;29.30;58.20
3350;DHT22;1688;51.000;13.684;2022-07-29T12:10:46;29.50;57.00
3350;DHT22;1688;51.000;13.684;2022-07-29T12:13:14;29.60;56.70
3350;DHT22;1688;51.000;13.684;2022-07-29T12:15:41;29.60;56.60
3350;DHT22;1688;51.000;13.684;2022-07-29T12:18:10;29.30;56.40
3350;DHT22;1688;51.000;13.684;2022-07-29T12:20:37;28.90;57.20
3350;DHT22;1688;51.000;13.684;2022-07-29T12:23:07;28.70;58.30
3350;DHT22;1688;51.000;13.684;2022-07-29T12:25:35;28.60;57.90
3350;DHT22;1688;51.000;13.684;2022-07-29T12:28:05;28.50;58.80
3350;DHT22;1688;51.000;13.684;2022-07-29T12:30:45;28.60;57.90
3350;DHT22;1688;51.000;13.684;2022-07-29T12:33:12;28.30;59.10
3350;DHT22;1688;51.000;13.684;2022-07-29T12:35:38;28.30;59.70
3350;DHT22;1688;51.000;13.684;2022-07-29T12:38:05;28.50;59.60
3350;DHT22;1688;51.000;13.684;2022-07-29T12:40:31;28.60;59.30
3350;DHT22;1688;51.000;13.684;2022-07-29T12:45:37;28.90;58.50
3350;DHT22;1688;51.000;13.684;2022-07-29T12:48:03;28.70;58.00
3350;DHT22;1688;51.000;13.684;2022-07-29T12:50:29;28.40;59.00
3350;DHT22;1688;51.000;13.684;2022-07-29T12:53:08;28.40;60.20
3350;DHT22;1688;51.000;13.684;2022-07-29T12:55:54;28.60;59.80
3350;DHT22;1688;51.000;13.684;2022-07-29T12:58:41;28.70;58.60
3350;DHT22;1688;51.000;13.684;2022-07-29T13:01:10;28.70;58.60
3350;DHT22;1688;51.000;13.684;2022-07-29T13:06:30;28.80;59.10
3350;DHT22;1688;51.000;13.684;2022-07-29T13:11:30;28.60;58.60
3350;DHT22;1688;51.000;13.684;2022-07-29T13:13:57;28.70;60.00
3350;DHT22;1688;51.000;13.684;2022-07-29T13:16:23;28.90;58.60
3350;DHT22;1688;51.000;13.684;2022-07-29T13:18:48;29.20;58.20
3350;DHT22;1688;51.000;13.684;2022-07-29T13:21:28;29.30;57.00
3350;DHT22;1688;51.000;13.684;2022-07-29T13:23:54;29.40;57.40
3350;DHT22;1688;51.000;13.684;2022-07-29T13:26:20;29.20;56.80
3350;DHT22;1688;51.000;13.684;2022-07-29T13:28:45;28.90;58.30
3350;DHT22;1688;51.000;13.684;2022-07-29T13:31:11;29.00;58.10
3350;DHT22;1688;51.000;13.684;2022-07-29T13:33:37;29.20;57.90
3350;DHT22;1688;51.000;13.684;2022-07-29T13:36:03;29.20;57.00
3350;DHT22;1688;51.000;13.684;2022-07-29T13:38:29;29.30;57.20
3350;DHT22;1688;51.000;13.684;2022-07-29T13:40:55;29.20;57.10
3350;DHT22;1688;51.000;13.684;2022-07-29T13:43:21;29.10;57.50
3350;DHT22;1688;51.000;13.684;2022-07-29T13:45:47;29.20;57.10
3350;DHT22;1688;51.000;13.684;2022-07-29T13:48:12;29.50;57.30
3350;DHT22;1688;51.000;13.684;2022-07-29T13:50:38;29.70;57.30
3350;DHT22;1688;51.000;13.684;2022-07-29T13:53:04;29.70;56.20
3350;DHT22;1688;51.000;13.684;2022-07-29T13:55:29;29.80;55.70
3350;DHT22;1688;51.000;13.684;2022-07-29T13:57:55;29.60;55.10
3350;DHT22;1688;51.000;13.684;2022-07-29T14:00:21;29.50;55.00
3350;DHT22;1688;51.000;13.684;2022-07-29T14:02:49;29.40;56.70
3350;DHT22;1688;51.000;13.684;2022-07-29T14:05:15;29.40;56.00
3350;DHT22;1688;51.000;13.684;2022-07-29T14:07:41;29.60;56.60
3350;DHT22;1688;51.000;13.684;2022-07-29T14:10:07;30.00;56.00
3350;DHT22;1688;51.000;13.684;2022-07-29T14:12:35;30.30;55.30
3350;DHT22;1688;51.000;13.684;2022-07-29T14:15:02;30.50;54.50
3350;DHT22;1688;51.000;13.684;2022-07-29T14:17:28;30.60;53.40
3350;DHT22;1688;51.000;13.684;2022-07-29T14:19:54;30.70;53.80
3350;DHT22;1688;51.000;13.684;2022-07-29T14:22:20;30.80;53.60
3350;DHT22;1688;51.000;13.684;2022-07-29T14:24:46;30.90;53.10
3350;DHT22;1688;51.000;13.684;2022-07-29T14:27:12;30.80;52.80
3350;DHT22;1688;51.000;13.684;2022-07-29T14:29:38;30.80;53.00
3350;DHT22;1688;51.000;13.684;2022-07-29T14:32:07;30.80;52.50
3350;DHT22;1688;51.000;13.684;2022-07-29T14:34:34;30.80;52.40
3350;DHT22;1688;51.000;13.684;2022-07-29T14:37:00;30.80;52.70
3350;DHT22;1688;51.000;13.684;2022-07-29T14:39:26;30.60;53.50
3350;DHT22;1688;51.000;13.684;2022-07-29T14:41:52;30.60;53.60
3350;DHT22;1688;51.000;13.684;2022-07-29T14:44:18;30.80;54.00
3350;DHT22;1688;51.000;13.684;2022-07-29T14:46:44;31.00;53.00
3350;DHT22;1688;51.000;13.684;2022-07-29T14:49:09;31.10;53.00
3350;DHT22;1688;51.000;13.684;2022-07-29T14:51:35;31.20;52.90
3350;DHT22;1688;51.000;13.684;2022-07-29T14:54:01;31.10;51.80
3350;DHT22;1688;51.000;13.684;2022-07-29T14:56:27;30.80;52.30
3350;DHT22;1688;51.000;13.684;2022-07-29T14:58:56;30.60;52.70
3350;DHT22;1688;51.000;13.684;2022-07-29T15:01:23;30.30;52.30
3350;DHT22;1688;51.000;13.684;2022-07-29T15:03:49;29.50;54.00
3350;DHT22;1688;51.000;13.684;2022-07-29T15:06:16;29.20;55.10
3350;DHT22;1688;51.000;13.684;2022-07-29T15:08:42;29.40;55.40
3350;DHT22;1688;51.000;13.684;2022-07-29T15:11:07;29.70;55.60
3350;DHT22;1688;51.000;13.684;2022-07-29T15:13:34;30.00;54.10
3350;DHT22;1688;51.000;13.684;2022-07-29T15:15:59;29.70;54.40
3350;DHT22;1688;51.000;13.684;2022-07-29T15:18:25;29.30;54.20
3350;DHT22;1688;51.000;13.684;2022-07-29T15:20:53;28.80;55.10
3350;DHT22;1688;51.000;13.684;2022-07-29T15:23:19;28.50;55.70
3350;DHT22;1688;51.000;13.684;2022-07-29T15:25:44;28.20;56.30
3350;DHT22;1688;51.000;13.684;2022-07-29T15:28:10;28.30;57.50
3350;DHT22;1688;51.000;13.684;2022-07-29T15:30:36;28.60;56.50
3350;DHT22;1688;51.000;13.684;2022-07-29T15:33:06;28.60;56.00
3350;DHT22;1688;51.000;13.684;2022-07-29T15:35:33;28.60;55.90
3350;DHT22;1688;51.000;13.684;2022-07-29T15:37:59;28.60;56.60
3350;DHT22;1688;51.000;13.684;2022-07-29T15:40:25;28.40;56.70
3350;DHT22;1688;51.000;13.684;2022-07-29T15:42:51;28.30;57.40
3350;DHT22;1688;51.000;13.684;2022-07-29T15:45:17;28.20;58.10
3350;DHT22;1688;51.000;13.684;2022-07-29T15:47:42;28.30;57.70
3350;DHT22;1688;51.000;13.684;2022-07-29T15:50:08;28.40;57.60
3350;DHT22;1688;51.000;13.684;2022-07-29T15:52:39;28.50;57.60
3350;DHT22;1688;51.000;13.684;2022-07-29T15:55:05;28.40;56.50
3350;DHT22;1688;51.000;13.684;2022-07-29T15:57:30;28.10;57.20
3350;DHT22;1688;51.000;13.684;2022-07-29T15:59:56;28.20;57.30
3350;DHT22;1688;51.000;13.684;2022-07-29T16:02:22;28.30;57.00
3350;DHT22;1688;51.000;13.684;2022-07-29T16:04:48;28.20;57.00
3350;DHT22;1688;51.000;13.684;2022-07-29T16:07:14;28.00;57.20
3350;DHT22;1688;51.000;13.684;2022-07-29T16:09:41;27.80;57.80
3350;DHT22;1688;51.000;13.684;2022-07-29T16:12:07;27.80;58.10
3350;DHT22;1688;51.000;13.684;2022-07-29T16:14:33;27.70;58.10
3350;DHT22;1688;51.000;13.684;2022-07-29T16:16:59;27.90;58.00
3350;DHT22;1688;51.000;13.684;2022-07-29T16:19:30;28.00;57.70
3350;DHT22;1688;51.000;13.684;2022-07-29T16:21:56;28.00;57.50
3350;DHT22;1688;51.000;13.684;2022-07-29T16:24:22;27.90;57.50
3350;DHT22;1688;51.000;13.684;2022-07-29T16:26:49;28.00;57.70
3350;DHT22;1688;51.000;13.684;2022-07-29T16:29:16;28.20;57.30
3350;DHT22;1688;51.000;13.684;2022-07-29T16:31:44;28.20;57.10
3350;DHT22;1688;51.000;13.684;2022-07-29T16:34:10;28.10;57.10
3350;DHT22;1688;51.000;13.684;2022-07-29T16:36:35;28.10;57.40
3350;DHT22;1688;51.000;13.684;2022-07-29T16:39:01;28.10;57.50
3350;DHT22;1688;51.000;13.684;2022-07-29T16:41:27;28.20;57.50
3350;DHT22;1688;51.000;13.684;2022-07-29T16:43:54;28.10;57.40
3350;DHT22;1688;51.000;13.684;2022-07-29T16:46:19;28.10;57.30
3350;DHT22;1688;51.000;13.684;2022-07-29T16:48:47;28.00;57.20
3350;DHT22;1688;51.000;13.684;2022-07-29T16:51:12;27.90;57.50
3350;DHT22;1688;51.000;13.684;2022-07-29T16:53:38;27.90;57.80
3350;DHT22;1688;51.000;13.684;2022-07-29T16:56:04;27.70;58.00